Time;durP1;ratioP1;P1;durP2;ratioP2;P2;SDS_P1;SDS_P2;PMS_P1;PMS_P2;Temp;Humidity;BMP_temperature;BMP_pressure;BME280_temperature;BME280_humidity;BME280_pressure;Samples;Min_cycle;Max_cycle;Signal;HPM_P1;HPM_P2
2022/11/14 00:00:55;;;;;;;25.20;15.95;;;;;;;6.83;100.00;101633.06;5028012;28;20099;-66
2022/11/14 00:03:21;;;;;;;27.15;16.95;;;;;;;6.79;100.00;101634.22;5023105;28;20111;-66
2022/11/14 00:05:48;;;;;;;27.70;15.88;;;;;;;6.78;100.00;101634.31;5012936;28;20045;-67
2022/11/14 00:08:20;;;;;;;24.40;15.43;;;;;;;6.80;100.00;101625.47;5017172;28;20460;-66
2022/11/14 00:10:48;;;;;;;29.58;17.85;;;;;;;6.74;100.00;101625.84;5010292;28;20049;-66
2022/11/14 00:13:16;;;;;;;30.47;17.93;;;;;;;6.76;100.00;101628.38;5008762;28;20573;-66
2022/11/14 00:15:43;;;;;;;27.25;17.80;;;;;;;6.71;100.00;101626.06;4997166;28;20108;-67
2022/11/14 00:18:10;;;;;;;26.65;16.48;;;;;;;6.68;100.00;101619.31;5012945;28;20112;-66
2022/11/14 00:20:36;;;;;;;26.35;16.65;;;;;;;6.61;100.00;101609.38;5018787;28;20053;-66
2022/11/14 00:23:03;;;;;;;26.30;16.67;;;;;;;6.61;100.00;101618.03;5004447;28;20061;-65
2022/11/14 00:25:30;;;;;;;29.45;16.92;;;;;;;6.61;100.00;101623.25;5026131;28;20529;-66
2022/11/14 00:27:57;;;;;;;25.85;16.35;;;;;;;6.53;100.00;101609.88;5018337;28;20160;-65
2022/11/14 00:30:25;;;;;;;27.42;17.05;;;;;;;6.52;100.00;101619.44;5007873;28;20478;-65
2022/11/14 00:32:51;;;;;;;28.73;17.58;;;;;;;6.48;100.00;101611.94;5014868;28;20060;-66
2022/11/14 00:35:18;;;;;;;27.17;16.25;;;;;;;6.45;100.00;101612.13;5011425;28;20057;-65
2022/11/14 00:37:44;;;;;;;31.10;16.90;;;;;;;6.42;100.00;101613.19;5025139;28;20617;-65
2022/11/14 00:40:11;;;;;;;31.85;18.15;;;;;;;6.33;100.00;101612.03;5013666;28;20054;-66
2022/11/14 00:42:37;;;;;;;31.55;18.50;;;;;;;6.30;100.00;101609.59;5013713;28;20050;-66
2022/11/14 00:45:04;;;;;;;27.92;16.83;;;;;;;6.29;100.00;101607.94;5010700;28;20049;-66
2022/11/14 00:47:30;;;;;;;30.98;18.90;;;;;;;6.27;100.00;101602.00;5016693;28;20599;-66
2022/11/14 00:49:56;;;;;;;31.98;18.25;;;;;;;6.28;100.00;101597.63;5016083;28;20050;-66
2022/11/14 00:52:23;;;;;;;30.15;18.15;;;;;;;6.24;100.00;101596.97;5015755;28;20053;-67
2022/11/14 00:54:49;;;;;;;31.50;19.15;;;;;;;6.21;100.00;101594.56;5018431;28;20081;-66
2022/11/14 00:57:16;;;;;;;30.73;20.05;;;;;;;6.20;100.00;101586.84;5005426;28;20100;-66
2022/11/14 00:59:42;;;;;;;29.75;18.52;;;;;;;6.18;100.00;101593.94;5024979;28;20528;-66
2022/11/14 01:02:08;;;;;;;34.17;19.25;;;;;;;6.18;100.00;101584.34;5012703;28;20061;-66
2022/11/14 01:04:35;;;;;;;31.42;19.23;;;;;;;6.16;100.00;101591.44;5017093;28;20103;-66
2022/11/14 01:07:01;;;;;;;30.67;18.40;;;;;;;6.14;100.00;101582.88;5020167;28;20103;-65
2022/11/14 01:09:27;;;;;;;31.23;19.23;;;;;;;6.13;100.00;101584.66;5018785;28;20107;-65
2022/11/14 01:11:54;;;;;;;33.38;20.48;;;;;;;6.07;100.00;101573.78;5014999;28;20652;-66
2022/11/14 01:14:20;;;;;;;30.80;19.48;;;;;;;6.04;100.00;101569.59;5019533;28;20057;-65
2022/11/14 01:16:47;;;;;;;34.83;20.98;;;;;;;6.01;100.00;101561.97;5031239;28;20053;-65
2022/11/14 01:19:13;;;;;;;34.95;20.90;;;;;;;5.96;100.00;101566.66;5019073;28;20485;-66
2022/11/14 01:21:39;;;;;;;36.85;20.35;;;;;;;5.94;100.00;101561.50;5013068;28;20399;-66
2022/11/14 01:24:06;;;;;;;35.45;20.48;;;;;;;5.93;100.00;101559.81;5020087;28;20359;-66
2022/11/14 01:26:32;;;;;;;35.42;21.27;;;;;;;5.91;100.00;101556.50;5002981;28;20083;-66
2022/11/14 01:28:58;;;;;;;32.17;20.17;;;;;;;5.89;100.00;101562.75;5025269;28;20104;-66
2022/11/14 01:31:25;;;;;;;34.05;20.13;;;;;;;5.86;100.00;101555.09;5022359;28;20134;-66
2022/11/14 01:33:53;;;;;;;33.47;21.10;;;;;;;5.87;100.00;101552.41;5012861;28;20053;-65
2022/11/14 01:36:20;;;;;;;37.17;21.00;;;;;;;5.81;100.00;101545.00;5025206;28;20049;-66
2022/11/14 01:38:51;;;;;;;39.15;21.40;;;;;;;5.82;100.00;101538.00;5014703;28;20053;-66
2022/11/14 01:41:17;;;;;;;34.60;20.48;;;;;;;5.73;100.00;101529.88;5019635;28;20057;-66
2022/11/14 01:43:44;;;;;;;34.58;20.48;;;;;;;5.69;100.00;101531.00;5015135;28;20057;-65
2022/11/14 01:46:31;;;;;;;35.58;21.45;;;;;;;5.72;100.00;101527.34;5030456;28;20111;-66
2022/11/14 01:49:25;;;;;;;37.17;20.77;;;;;;;5.69;100.00;101522.34;5028846;28;20478;-65
2022/11/14 01:52:04;;;;;;;35.35;20.73;;;;;;;5.67;100.00;101522.44;5014693;28;20103;-66
2022/11/14 01:54:37;;;;;;;35.88;20.17;;;;;;;5.63;100.00;101513.16;5020268;28;20057;-66
2022/11/14 01:57:06;;;;;;;33.50;20.95;;;;;;;5.59;100.00;101516.06;5012187;28;20124;-65
2022/11/14 01:59:35;;;;;;;;;;;;;;;5.61;100.00;101511.59;5023770;28;20068;-66
2022/11/14 02:02:06;;;;;;;35.10;21.58;;;;;;;5.56;100.00;101509.28;5015044;28;19975;-65
2022/11/14 02:04:37;;;;;;;34.85;19.80;;;;;;;5.59;100.00;101501.28;5020110;28;20104;-66
2022/11/14 02:07:05;;;;;;;39.50;21.40;;;;;;;5.58;100.00;101504.81;5011247;28;20464;-66
2022/11/14 02:09:36;;;;;;;36.65;19.80;;;;;;;5.57;100.00;101503.16;5018482;28;20129;-66
2022/11/14 02:12:07;;;;;;;37.42;20.75;;;;;;;5.53;100.00;101499.06;5025249;28;20057;-65
2022/11/14 02:14:35;;;;;;;39.85;20.52;;;;;;;5.51;100.00;101495.72;5017685;28;20061;-65
2022/11/14 02:17:02;;;;;;;;;;;;;;;5.51;100.00;101488.75;5032525;28;20071;-66
2022/11/14 02:20:23;;;;;;;37.42;22.17;;;;;;;5.48;100.00;101477.69;5013610;28;19943;-66
2022/11/14 02:22:49;;;;;;;39.45;20.60;;;;;;;5.41;100.00;101474.66;5017884;28;20054;-65
2022/11/14 02:25:17;;;;;;;33.53;18.45;;;;;;;5.41;100.00;101474.66;5004359;28;20099;-65
2022/11/14 02:27:44;;;;;;;37.25;20.63;;;;;;;5.39;100.00;101475.66;5020564;28;20489;-66
2022/11/14 02:30:15;;;;;;;40.70;21.90;;;;;;;5.42;100.00;101475.50;5026323;28;20065;-66
2022/11/14 02:32:41;;;;;;;33.33;20.17;;;;;;;5.42;100.00;101470.28;5019302;28;20509;-66
2022/11/14 02:35:28;;;;;;;37.83;21.27;;;;;;;5.40;100.00;101472.16;5016311;28;20107;-66
2022/11/14 02:37:54;;;;;;;38.80;21.38;;;;;;;5.40;100.00;101472.97;5010755;28;20045;-66
2022/11/14 02:40:20;;;;;;;36.03;20.65;;;;;;;5.37;100.00;101478.38;5029943;28;20061;-66
2022/11/14 02:42:47;;;;;;;42.95;22.13;;;;;;;5.33;100.00;101474.28;5014247;28;20107;-66
2022/11/14 02:45:13;;;;;;;37.50;19.90;;;;;;;5.31;100.00;101477.00;5030676;28;20069;-66
2022/11/14 02:47:40;;;;;;;38.60;21.27;;;;;;;5.35;100.00;101469.81;5029302;28;20266;-66
2022/11/14 02:50:06;;;;;;;39.58;21.08;;;;;;;5.33;100.00;101467.34;5022911;28;20580;-66
2022/11/14 02:52:32;;;;;;;39.15;21.95;;;;;;;5.28;100.00;101458.16;5039958;28;20053;-67
2022/11/14 02:54:59;;;;;;;45.55;24.58;;;;;;;5.25;100.00;101459.19;5020976;28;20103;-66
2022/11/14 02:57:25;;;;;;;44.45;22.65;;;;;;;5.25;100.00;101463.53;5018726;28;20084;-66
2022/11/14 02:59:52;;;;;;;38.00;20.85;;;;;;;5.25;100.00;101464.38;5015911;28;20469;-67
2022/11/14 03:02:18;;;;;;;41.33;21.75;;;;;;;5.21;100.00;101465.47;5039820;28;20061;-66
2022/11/14 03:04:44;;;;;;;40.95;22.33;;;;;;;5.19;100.00;101466.50;5017185;28;20069;-66
2022/11/14 03:07:11;;;;;;;36.60;19.83;;;;;;;5.17;100.00;101464.00;5026793;28;20075;-66
2022/11/14 03:09:37;;;;;;;39.10;20.60;;;;;;;5.19;100.00;101463.91;5018683;28;20107;-66
2022/11/14 03:12:04;;;;;;;39.40;20.38;;;;;;;5.17;100.00;101461.41;5022718;28;20050;-66
2022/11/14 03:14:31;;;;;;;36.65;19.98;;;;;;;5.13;100.00;101462.53;5020669;28;20070;-65
2022/11/14 03:16:57;;;;;;;36.03;20.98;;;;;;;5.15;100.00;101455.47;5015893;28;20840;-66
2022/11/14 03:19:23;;;;;;;37.22;19.83;;;;;;;5.13;100.00;101452.13;5024308;28;20068;-65
2022/11/14 03:21:50;;;;;;;36.25;19.92;;;;;;;5.15;100.00;101447.66;5034930;28;20048;-66
2022/11/14 03:24:16;;;;;;;33.70;18.50;;;;;;;5.14;100.00;101440.81;5019424;28;20042;-65
2022/11/14 03:26:42;;;;;;;32.58;17.50;;;;;;;5.15;100.00;101443.31;5026959;28;20506;-66
2022/11/14 03:29:09;;;;;;;33.53;19.50;;;;;;;5.12;100.00;101435.69;5025615;28;20643;-66
2022/11/14 03:31:36;;;;;;;36.45;20.55;;;;;;;5.11;100.00;101440.97;5027657;28;20474;-65
2022/11/14 03:34:03;;;;;;;33.38;18.58;;;;;;;5.10;100.00;101441.94;5009226;28;20111;-65
2022/11/14 03:36:29;;;;;;;37.15;19.45;;;;;;;5.11;100.00;101440.97;5023937;28;20057;-65
2022/11/14 03:38:55;;;;;;;39.80;21.30;;;;;;;5.07;100.00;101448.13;5023617;28;20406;-65
2022/11/14 03:41:22;;;;;;;43.38;22.08;;;;;;;5.07;100.00;101439.50;5016126;28;20466;-65
2022/11/14 03:43:48;;;;;;;38.70;21.23;;;;;;;5.02;100.00;101442.41;5020414;28;20445;-65
2022/11/14 03:46:14;;;;;;;37.75;20.85;;;;;;;5.01;100.00;101432.91;5024887;28;20053;-65
2022/11/14 03:48:41;;;;;;;41.45;20.67;;;;;;;4.97;100.00;101430.63;5018817;28;20053;-65
2022/11/14 03:51:07;;;;;;;43.10;22.25;;;;;;;4.95;100.00;101428.09;5031872;28;20068;-66
2022/11/14 03:53:33;;;;;;;39.88;21.13;;;;;;;4.96;100.00;101429.78;5023075;28;20180;-63
2022/11/14 03:56:00;;;;;;;38.00;19.92;;;;;;;4.92;100.00;101425.69;5020787;28;20061;-65
2022/11/14 03:58:26;;;;;;;33.63;20.00;;;;;;;4.92;100.00;101429.13;5025216;28;20060;-64
2022/11/14 04:00:54;;;;;;;35.55;19.33;;;;;;;4.88;100.00;101424.19;5026596;28;20046;-63
2022/11/14 04:03:22;;;;;;;37.27;18.83;;;;;;;4.87;100.00;101420.78;5010395;28;20863;-64
2022/11/14 04:05:49;;;;;;;39.30;20.65;;;;;;;4.86;100.00;101415.66;5021018;28;20061;-64
2022/11/14 04:08:16;;;;;;;39.47;20.25;;;;;;;4.89;100.00;101418.09;5025746;28;20453;-64
2022/11/14 04:10:46;;;;;;;38.50;19.55;;;;;;;4.87;100.00;101406.94;5027159;28;20057;-64
2022/11/14 04:13:12;;;;;;;37.50;19.55;;;;;;;4.82;100.00;101407.25;5029918;28;20049;-64
2022/11/14 04:15:39;;;;;;;38.83;20.73;;;;;;;4.82;100.00;101401.19;5022118;28;20655;-64
2022/11/14 04:18:06;;;;;;;37.53;19.60;;;;;;;4.81;100.00;101407.34;5019490;28;20045;-64
2022/11/14 04:20:32;;;;;;;39.53;19.00;;;;;;;4.75;100.00;101403.34;5018388;28;20422;-64
2022/11/14 04:22:58;;;;;;;36.70;19.35;;;;;;;4.74;100.00;101402.53;5028811;28;20111;-64
2022/11/14 04:25:25;;;;;;;39.08;19.23;;;;;;;4.74;100.00;101401.66;5029148;28;20050;-64
2022/11/14 04:27:51;;;;;;;35.08;18.90;;;;;;;4.71;100.00;101394.91;5023115;28;20103;-64
2022/11/14 04:30:17;;;;;;;39.50;20.25;;;;;;;4.73;100.00;101400.00;5026626;28;20115;-64
2022/11/14 04:32:47;;;;;;;42.28;21.88;;;;;;;4.71;100.00;101400.09;5020473;28;21051;-64
2022/11/14 04:35:14;;;;;;;39.05;19.67;;;;;;;4.67;100.00;101390.00;5013906;28;20061;-64
2022/11/14 04:37:40;;;;;;;37.47;19.08;;;;;;;4.66;100.00;101394.34;5019445;28;20050;-64
2022/11/14 04:40:07;;;;;;;41.45;20.85;;;;;;;4.63;100.00;101384.16;5015509;28;20049;-64
2022/11/14 04:42:33;;;;;;;35.70;18.52;;;;;;;4.63;100.00;101394.53;5021954;28;20049;-64
2022/11/14 04:45:00;;;;;;;36.47;19.73;;;;;;;4.65;100.00;101390.09;5017386;28;20057;-64
2022/11/14 04:47:26;;;;;;;35.97;19.08;;;;;;;4.63;100.00;101391.13;5029991;28;20137;-64
2022/11/14 04:49:53;;;;;;;35.90;19.10;;;;;;;4.59;100.00;101394.81;5019110;28;20050;-64
2022/11/14 04:52:19;;;;;;;38.65;19.30;;;;;;;4.58;100.00;101399.16;5032675;28;20041;-64
2022/11/14 04:54:45;;;;;;;36.17;19.70;;;;;;;4.58;100.00;101393.97;5019936;28;20042;-64
2022/11/14 04:57:12;;;;;;;36.95;19.33;;;;;;;4.62;100.00;101385.06;5020929;28;20052;-64
2022/11/14 04:59:39;;;;;;;36.30;19.25;;;;;;;4.57;100.00;101387.13;5029641;28;20041;-63
2022/11/14 05:02:05;;;;;;;40.17;20.38;;;;;;;4.53;100.00;101376.06;5017270;28;20041;-64
2022/11/14 05:04:31;;;;;;;36.67;18.95;;;;;;;4.54;100.00;101375.13;5018858;28;20468;-64
2022/11/14 05:06:58;;;;;;;39.28;18.98;;;;;;;4.47;100.00;101376.44;5015220;28;20050;-65
2022/11/14 05:09:24;;;;;;;37.67;19.25;;;;;;;4.47;100.00;101368.66;5020970;28;20053;-64
2022/11/14 05:11:51;;;;;;;35.50;18.92;;;;;;;4.45;100.00;101367.06;5019781;28;21701;-64
2022/11/14 05:14:17;;;;;;;37.63;19.55;;;;;;;4.44;100.00;101373.19;5021998;28;20476;-64
2022/11/14 05:16:43;;;;;;;31.35;17.90;;;;;;;4.44;100.00;101366.25;5023881;28;20114;-64
2022/11/14 05:19:10;;;;;;;37.78;18.88;;;;;;;4.44;100.00;101370.59;5008472;28;20060;-64
2022/11/14 05:21:36;;;;;;;37.30;19.25;;;;;;;4.43;100.00;101363.72;5027541;28;20050;-64
2022/11/14 05:24:03;;;;;;;38.38;19.30;;;;;;;4.40;100.00;101359.56;5028329;28;20072;-64
2022/11/14 05:26:29;;;;;;;33.75;18.98;;;;;;;4.39;100.00;101367.44;5012689;28;20049;-64
2022/11/14 05:28:55;;;;;;;36.90;18.67;;;;;;;4.38;100.00;101360.59;5018706;28;20041;-64
2022/11/14 05:31:22;;;;;;;38.13;19.83;;;;;;;4.35;100.00;101362.44;5026350;28;20402;-64
2022/11/14 05:33:49;;;;;;;38.58;20.25;;;;;;;4.30;100.00;101355.84;5032440;28;20045;-63
2022/11/14 05:36:15;;;;;;;35.95;18.00;;;;;;;4.31;100.00;101357.50;5015908;28;20057;-64
2022/11/14 05:38:43;;;;;;;38.03;19.00;;;;;;;4.28;100.00;101345.56;5021444;28;20461;-64
2022/11/14 05:41:19;;;;;;;34.05;18.40;;;;;;;4.31;100.00;101347.97;5020065;28;20127;-64
2022/11/14 05:43:45;;;;;;;31.90;17.58;;;;;;;4.30;100.00;101351.50;5019259;28;20053;-64
2022/11/14 05:46:13;;;;;;;35.47;18.85;;;;;;;4.31;100.00;101350.56;5020065;28;20049;-63
2022/11/14 05:48:40;;;;;;;33.97;17.90;;;;;;;4.31;100.00;101347.97;5003981;28;20050;-64
2022/11/14 05:51:10;;;;;;;33.10;17.83;;;;;;;4.31;100.00;101345.38;5019346;28;20075;-64
2022/11/14 05:53:37;;;;;;;34.38;18.00;;;;;;;4.25;100.00;101339.72;5017106;28;20060;-64
2022/11/14 05:56:06;;;;;;;39.17;18.33;;;;;;;4.27;100.00;101335.25;5023181;28;20114;-64
2022/11/14 05:58:34;;;;;;;36.38;19.02;;;;;;;4.23;100.00;101334.59;5028426;28;20049;-64
2022/11/14 06:01:08;;;;;;;32.70;18.30;;;;;;;4.21;100.00;101340.81;5016485;28;20572;-64
2022/11/14 06:03:37;;;;;;;36.85;19.50;;;;;;;4.19;100.00;101332.28;5017312;28;20051;-64
2022/11/14 06:06:06;;;;;;;37.88;18.13;;;;;;;4.16;100.00;101330.72;5007628;28;20482;-64
2022/11/14 06:08:33;;;;;;;36.60;18.98;;;;;;;4.14;100.00;101335.19;5007303;28;20048;-66
2022/11/14 06:11:08;;;;;;;34.88;16.83;;;;;;;4.16;100.00;101331.56;5007787;28;20049;-64
2022/11/14 06:13:35;;;;;;;34.30;18.15;;;;;;;4.13;100.00;101329.13;5028688;28;20055;-64
2022/11/14 06:16:08;;;;;;;35.60;17.65;;;;;;;4.19;100.00;101332.28;5027854;28;20099;-64
2022/11/14 06:18:35;;;;;;;35.25;19.02;;;;;;;4.14;100.00;101335.19;5010800;28;20045;-64
2022/11/14 06:21:13;;;;;;;33.15;17.80;;;;;;;4.11;100.00;101327.56;5010526;28;20052;-64
2022/11/14 06:23:40;;;;;;;34.50;17.67;;;;;;;4.08;100.00;101332.94;5006484;28;20434;-64
2022/11/14 06:26:19;;;;;;;30.42;16.25;;;;;;;4.09;100.00;101330.22;5028089;28;20057;-64
2022/11/14 06:28:48;;;;;;;32.10;17.48;;;;;;;4.06;100.00;101337.41;5032837;28;20167;-64
2022/11/14 06:31:15;;;;;;;32.15;16.95;;;;;;;4.07;100.00;101334.69;5029842;28;20048;-64
2022/11/14 06:33:41;;;;;;;29.88;16.98;;;;;;;4.02;100.00;101338.47;5035888;28;20045;-64
2022/11/14 06:36:08;;;;;;;36.63;18.02;;;;;;;4.06;100.00;101346.00;5018726;28;20049;-64
2022/11/14 06:38:37;;;;;;;32.70;16.52;;;;;;;4.06;100.00;101351.22;5019192;28;20054;-65
2022/11/14 06:41:04;;;;;;;;;;;;;;;4.06;100.00;101346.00;5011761;28;20057;-65
2022/11/14 06:43:32;;;;;;;36.13;19.10;;;;;;;4.01;100.00;101348.03;5013086;28;19983;-64
2022/11/14 06:45:59;;;;;;;37.17;20.27;;;;;;;3.93;100.00;101343.28;5022210;28;20285;-64
2022/11/14 06:48:26;;;;;;;47.10;19.25;;;;;;;3.96;100.00;101344.91;5024574;28;20053;-64
2022/11/14 06:50:54;;;;;;;32.50;17.58;;;;;;;3.97;100.00;101346.56;5021156;28;20423;-65
2022/11/14 06:53:21;;;;;;;31.03;16.27;;;;;;;3.96;100.00;101352.69;5013698;28;20061;-64
2022/11/14 06:55:59;;;;;;;31.85;16.48;;;;;;;3.97;100.00;101341.34;5039942;28;20274;-65
2022/11/14 06:58:46;;;;;;;30.85;16.42;;;;;;;3.92;100.00;101344.25;5016359;28;20065;-65
2022/11/14 07:01:17;;;;;;;33.92;17.75;;;;;;;3.93;100.00;101343.28;5018864;28;20568;-65
2022/11/14 07:03:44;;;;;;;30.08;17.27;;;;;;;3.93;100.00;101348.50;5022633;28;20675;-64
2022/11/14 07:06:16;;;;;;;35.72;17.48;;;;;;;3.94;100.00;101342.38;5019881;28;20176;-64
2022/11/14 07:08:43;;;;;;;32.88;17.70;;;;;;;3.87;100.00;101345.44;5011508;28;20046;-65
2022/11/14 07:11:21;;;;;;;31.17;16.60;;;;;;;3.92;100.00;101339.03;5015495;28;20058;-64
2022/11/14 07:14:01;;;;;;;31.70;16.98;;;;;;;3.93;100.00;101350.25;5015435;28;20052;-64
2022/11/14 07:16:30;;;;;;;31.83;17.17;;;;;;;3.89;100.00;101353.97;5019858;28;20100;-64
2022/11/14 07:18:57;;;;;;;36.53;17.58;;;;;;;3.89;100.00;101343.56;5026394;28;20641;-64
2022/11/14 07:21:26;;;;;;;30.10;16.98;;;;;;;3.88;100.00;101350.53;5013753;28;20049;-65
2022/11/14 07:23:52;;;;;;;33.50;16.75;;;;;;;3.89;100.00;101356.56;5021319;28;20053;-64
2022/11/14 07:26:19;;;;;;;29.13;15.68;;;;;;;3.88;100.00;101357.47;5020811;28;20045;-64
2022/11/14 07:28:45;;;;;;;33.97;17.58;;;;;;;3.87;100.00;101359.22;5034267;28;20118;-64
2022/11/14 07:31:19;;;;;;;32.25;17.10;;;;;;;3.90;100.00;101355.63;5031280;28;20053;-64
2022/11/14 07:33:46;;;;;;;27.50;14.60;;;;;;;3.90;100.00;101358.22;5017775;28;20061;-64
2022/11/14 07:36:14;;;;;;;32.22;16.40;;;;;;;3.92;100.00;101359.81;5020048;28;20452;-64
2022/11/14 07:38:41;;;;;;;30.35;16.58;;;;;;;3.89;100.00;101352.19;5020088;28;20053;-65
2022/11/14 07:41:12;;;;;;;30.85;16.15;;;;;;;3.91;100.00;101354.72;5031236;28;20106;-64
2022/11/14 07:43:40;;;;;;;26.85;15.15;;;;;;;3.91;100.00;101342.56;5019251;28;20052;-65
2022/11/14 07:46:12;;;;;;;34.42;17.00;;;;;;;3.94;100.00;101342.38;5037680;28;20107;-65
2022/11/14 07:48:39;;;;;;;33.17;17.02;;;;;;;3.93;100.00;101343.28;5024758;28;20422;-65
2022/11/14 07:51:09;;;;;;;33.15;16.30;;;;;;;3.94;100.00;101342.38;5010208;28;20056;-63
2022/11/14 07:53:36;;;;;;;29.17;15.27;;;;;;;3.90;100.00;101340.91;5027133;28;20062;-65
2022/11/14 07:56:05;;;;;;;31.27;16.02;;;;;;;3.97;100.00;101339.59;5011266;28;20049;-65
2022/11/14 07:58:34;;;;;;;26.98;15.55;;;;;;;3.97;100.00;101339.59;5016455;28;20072;-64
2022/11/14 08:01:02;;;;;;;34.30;16.30;;;;;;;3.96;100.00;101337.94;5006570;28;20049;-64
2022/11/14 08:03:29;;;;;;;29.57;16.33;;;;;;;3.98;100.00;101335.25;5012988;28;20564;-64
2022/11/14 08:06:01;;;;;;;28.77;15.85;;;;;;;4.04;100.00;101329.69;5018797;28;20287;-64
2022/11/14 08:08:27;;;;;;;30.88;17.02;;;;;;;4.03;100.00;101327.19;5013370;28;20107;-65
2022/11/14 08:10:58;;;;;;;27.77;15.80;;;;;;;4.10;100.00;101329.31;5032917;28;20441;-65
2022/11/14 08:13:25;;;;;;;26.88;15.35;;;;;;;4.12;100.00;101335.25;5011360;28;20045;-64
2022/11/14 08:16:04;;;;;;;31.35;17.13;;;;;;;4.13;100.00;101330.91;5015149;28;20494;-64
2022/11/14 08:18:37;;;;;;;31.95;15.82;;;;;;;4.09;100.00;101322.44;5004721;28;20053;-64
2022/11/14 08:21:04;;;;;;;29.75;16.13;;;;;;;4.17;100.00;101322.00;5027138;28;20058;-64
2022/11/14 08:23:30;;;;;;;32.38;17.55;;;;;;;4.12;100.00;101318.84;5016875;28;20424;-64
2022/11/14 08:25:58;;;;;;;27.05;16.13;;;;;;;4.16;100.00;101308.19;5026463;28;20062;-64
2022/11/14 08:28:25;;;;;;;34.95;18.10;;;;;;;4.15;100.00;101306.50;5021700;28;20084;-64
2022/11/14 08:30:51;;;;;;;29.50;15.70;;;;;;;4.20;100.00;101302.81;5014406;28;20862;-64
2022/11/14 08:33:17;;;;;;;25.73;15.20;;;;;;;4.19;100.00;101301.13;5024748;28;20057;-65
2022/11/14 08:35:44;;;;;;;31.70;17.33;;;;;;;4.22;100.00;101293.16;5023424;28;20056;-64
2022/11/14 08:38:10;;;;;;;31.50;16.42;;;;;;;4.25;100.00;101292.97;5026326;28;20103;-63
2022/11/14 08:40:38;;;;;;;29.20;16.30;;;;;;;4.28;100.00;101293.63;5025439;28;20046;-64
2022/11/14 08:43:05;;;;;;;31.90;16.52;;;;;;;4.31;100.00;101292.59;5016413;28;20103;-64
2022/11/14 08:45:31;;;;;;;27.50;15.43;;;;;;;4.36;100.00;101295.75;5012844;28;20049;-64
2022/11/14 08:47:57;;;;;;;23.92;13.75;;;;;;;4.46;100.00;101296.00;5017007;28;20046;-64
2022/11/14 08:50:24;;;;;;;30.75;16.65;;;;;;;4.51;100.00;101294.78;5027981;28;20041;-65
2022/11/14 08:52:51;;;;;;;27.95;14.95;;;;;;;4.56;100.00;101305.72;5018238;28;20126;-65
2022/11/14 08:55:19;;;;;;;28.58;16.17;;;;;;;4.59;100.00;101299.53;5027634;28;20062;-64
2022/11/14 08:57:45;;;;;;;30.30;16.25;;;;;;;4.60;100.00;101295.16;5018142;28;20106;-64
2022/11/14 09:00:15;;;;;;;27.13;15.25;;;;;;;4.67;100.00;101297.25;5016664;28;20071;-65
2022/11/14 09:02:42;;;;;;;26.85;15.10;;;;;;;4.67;100.00;101297.25;5021463;28;20067;-65
2022/11/14 09:05:08;;;;;;;25.98;15.43;;;;;;;4.73;100.00;101291.69;5006576;28;20498;-65
2022/11/14 09:07:35;;;;;;;28.30;15.82;;;;;;;4.81;100.00;101285.16;5016951;28;20049;-64
2022/11/14 09:10:03;;;;;;;26.33;16.30;;;;;;;4.85;100.00;101289.25;5013618;28;20520;-64
2022/11/14 09:12:29;;;;;;;26.73;14.93;;;;;;;4.86;100.00;101283.94;5020831;28;20057;-64
2022/11/14 09:14:55;;;;;;;27.60;16.02;;;;;;;4.91;100.00;101286.25;5015980;28;20045;-64
2022/11/14 09:17:22;;;;;;;30.40;16.20;;;;;;;4.95;100.00;101285.09;5017164;28;20060;-65
2022/11/14 09:19:48;;;;;;;26.80;16.30;;;;;;;4.99;100.00;101281.38;5030224;28;20118;-65
2022/11/14 09:22:14;;;;;;;28.75;15.00;;;;;;;5.01;100.00;101281.28;5029445;28;20049;-65
2022/11/14 09:24:41;;;;;;;28.33;15.65;;;;;;;5.03;100.00;101271.63;5026168;28;20591;-64
2022/11/14 09:27:08;;;;;;;27.73;15.70;;;;;;;5.14;100.00;101271.75;5029365;28;20599;-64
2022/11/14 09:29:34;;;;;;;25.95;15.18;;;;;;;5.19;100.00;101281.84;5017573;28;20853;-66
2022/11/14 09:32:00;;;;;;;21.15;12.45;;;;;;;5.25;100.00;101269.31;5018706;28;20072;-65
2022/11/14 09:34:27;;;;;;;26.02;14.93;;;;;;;5.28;100.00;101276.88;5021619;28;20052;-65
2022/11/14 09:36:53;;;;;;;27.08;14.50;;;;;;;5.39;100.00;101272.72;5023158;28;20057;-65
2022/11/14 09:39:19;;;;;;;23.02;12.98;;;;;;;5.49;100.00;101271.22;5026337;28;20070;-65
2022/11/14 09:41:49;;;;;;;25.10;12.77;;;;;;;5.60;100.00;101266.09;5020738;28;20060;-65
2022/11/14 09:44:25;;;;;;;25.23;14.82;;;;;;;5.63;100.00;101263.31;5019063;28;20126;-67
2022/11/14 09:47:02;;;;;;;28.75;16.02;;;;;;;5.67;100.00;101261.34;5016363;28;20110;-65
2022/11/14 09:49:37;;;;;;;26.60;14.48;;;;;;;5.78;100.00;101268.41;5017936;28;20049;-65
2022/11/14 09:52:25;;;;;;;25.42;14.50;;;;;;;5.82;100.00;101270.72;5021503;28;20049;-65
2022/11/14 09:54:56;;;;;;;27.85;16.13;;;;;;;5.86;100.00;101263.50;5011656;28;20061;-65
2022/11/14 09:57:24;;;;;;;26.58;14.45;;;;;;;5.91;100.00;101258.81;5013115;28;20103;-65
2022/11/14 09:59:50;;;;;;;24.98;14.70;;;;;;;5.91;100.00;101257.03;5032949;28;20056;-64
2022/11/14 10:02:46;;;;;;;25.00;14.45;;;;;;;6.08;100.00;101248.09;5030586;28;20054;-65
2022/11/14 10:05:32;;;;;;;21.35;13.20;;;;;;;6.09;100.00;101247.16;5019790;28;20057;-65
2022/11/14 10:08:36;;;;;;;24.50;14.23;;;;;;;6.14;100.00;101239.84;5027759;28;20091;-64
2022/11/14 10:11:11;;;;;;;25.95;15.00;;;;;;;6.27;100.00;101242.44;5005356;28;20115;-65
2022/11/14 10:14:07;;;;;;;24.00;13.50;;;;;;;6.37;100.00;101240.03;5011468;28;20462;-65
2022/11/14 10:16:50;;;;;;;26.50;14.95;;;;;;;6.46;100.00;101238.53;5014522;28;20048;-65
2022/11/14 10:19:44;;;;;;;23.67;13.75;;;;;;;6.60;100.00;101235.75;5016604;28;20084;-66
2022/11/14 10:22:31;;;;;;;20.58;12.75;;;;;;;6.73;100.00;101241.75;5008452;28;20084;-65
2022/11/14 10:25:18;;;;;;;23.40;13.95;;;;;;;6.88;100.00;101241.56;5023313;28;20053;-65
2022/11/14 10:27:54;;;;;;;21.98;13.70;;;;;;;7.01;100.00;101234.50;5005508;28;20054;-65
2022/11/14 10:30:36;;;;;;;23.17;14.00;;;;;;;7.07;100.00;101236.66;5010198;28;20506;-65
2022/11/14 10:33:17;;;;;;;22.48;13.15;;;;;;;7.17;100.00;101217.72;5016425;28;20517;-65
2022/11/14 10:36:14;;;;;;;21.42;13.52;;;;;;;7.23;100.00;101222.50;5031143;28;20080;-66
2022/11/14 10:38:47;;;;;;;22.17;13.43;;;;;;;7.30;100.00;101221.91;5011496;28;20050;-66
2022/11/14 10:41:13;;;;;;;20.75;13.20;;;;;;;7.38;100.00;101217.91;5015747;28;20522;-65
2022/11/14 10:44:01;;;;;;;20.50;13.02;;;;;;;7.50;100.00;101209.13;5015705;28;20176;-65
2022/11/14 10:46:40;;;;;;;22.60;14.60;;;;;;;7.59;100.00;101208.44;5020615;28;20486;-66
2022/11/14 10:49:17;;;;;;;24.50;14.30;;;;;;;7.71;100.00;101209.28;5010793;28;20079;-65
2022/11/14 10:51:49;;;;;;;22.38;14.00;;;;;;;7.80;100.00;101205.97;5024567;28;20041;-65
2022/11/14 10:54:24;;;;;;;21.70;13.65;;;;;;;7.92;100.00;101205.00;5014899;28;20099;-65
2022/11/14 10:56:53;;;;;;;26.55;15.57;;;;;;;8.02;100.00;101205.13;5014094;28;20049;-65
2022/11/14 10:59:20;;;;;;;21.90;13.80;;;;;;;8.11;100.00;101200.94;5017929;28;20058;-65
2022/11/14 11:01:49;;;;;;;20.63;12.98;;;;;;;8.20;100.00;101202.84;5006614;28;20068;-65
2022/11/14 11:04:31;;;;;;;21.42;13.05;;;;;;;8.31;100.00;101205.44;5021288;28;20050;-65
2022/11/14 11:13:36;;;;;;;;;;;;;;;8.60;100.00;101181.34;5005134;28;20061;-65
2022/11/14 11:16:03;;;;;;;22.52;13.75;;;;;;;8.65;100.00;101186.22;5019507;28;19925;-65
2022/11/14 11:18:35;;;;;;;19.90;12.30;;;;;;;8.73;100.00;101183.00;5018821;28;20079;-66
2022/11/14 11:21:06;;;;;;;19.85;13.20;;;;;;;8.70;100.00;101179.69;5021344;28;20049;-66
2022/11/14 11:23:33;;;;;;;22.02;13.55;;;;;;;8.77;100.00;101187.00;5023780;28;20634;-66
2022/11/14 11:26:08;;;;;;;24.65;15.68;;;;;;;8.76;100.00;101178.34;5018393;28;20111;-66